Latest Coastal Weather Observations for Creal Reef

IDQ60701

Issued at 8:13 am EST Sunday 19 May 2024 (issued every 10 minutes, with the page automatically refreshed every 10 minutes)

About coastal observations | Map of coastal stations | Coastal observations for QLD | Marine services | Other Formats
Station Details ID: 200736 Name: CREAL REEF Lat: -20.53 Lon: 150.38 Height: 1.7 m
Data from the previous 72 hours. | See also: Recent months for locations in Queensland
Date/Time
EST
Wind Sea
Height
m
Swell Vis
km
Cloud Weather Temp
°C
Press
MSL
hPa
Rain since
9am
mm
Dir  Spd
kts
Gust
kts
Height
m
Period
s
Dir
19/08:00am S 24 28 - - - - - - - 21.3 1015.3 -
19/07:30am S 24 29 - - - - - - - 21.9 1015.1 -
19/07:00am S 26 31 - - - - - - - 22.0 1014.6 -
19/06:30am S 25 30 - - - - - - - 22.4 1014.2 -
19/06:00am S 27 32 - - - - - - - 22.3 1013.8 -
19/05:30am S 25 31 - - - - - - - 22.9 1013.5 -
19/05:00am S 25 29 - - - - - - - 23.3 1013.0 -
19/04:30am SSE 22 25 - - - - - - - 23.6 1012.9 -
19/04:00am S 23 26 - - - - - - - 23.9 1012.6 -
19/03:30am S 23 28 - - - - - - - 24.2 1012.5 -
19/03:00am S 23 27 - - - - - - - 24.2 1012.5 -
19/02:30am S 21 27 - - - - - - - 24.4 1012.8 -
19/02:00am S 20 23 - - - - - - - 24.2 1013.0 -
19/01:30am S 19 22 - - - - - - - 24.3 1013.2 -
19/01:00am S 16 18 - - - - - - - 24.2 1013.4 -
19/12:30am S 14 17 - - - - - - - 24.1 1013.6 -
19/12:00am SSE 13 16 - - - - - - - 24.2 1013.8 -
 
Date/Time
EST
Wind Sea
Height
m
Swell Vis
km
Cloud Weather Temp
°C
Press
MSL
hPa
Rain since
9am
mm
Dir  Spd
kts
Gust
kts
Height
m
Period
s
Dir
18/11:30pm SSE 11 13 - - - - - - - 24.1 1014.0 -
18/11:00pm SSE 12 14 - - - - - - - 24.2 1014.3 -
18/10:30pm SSE 11 14 - - - - - - - 24.0 1014.6 -
18/10:00pm SSE 13 17 - - - - - - - 23.9 1014.5 -
18/09:30pm SSE 14 16 - - - - - - - 23.8 1014.7 -
18/09:00pm SSE 12 16 - - - - - - - 23.8 1014.7 -
18/08:30pm SE 12 16 - - - - - - - 23.7 1014.9 -
18/08:00pm SSE 14 18 - - - - - - - 24.0 1014.9 -
18/07:30pm SSE 13 16 - - - - - - - 23.7 1014.6 -
18/07:00pm SSE 16 19 - - - - - - - 23.6 1014.2 -
18/06:30pm SSE 16 19 - - - - - - - 23.6 1014.0 -
18/06:00pm SSE 16 19 - - - - - - - 23.6 1013.8 -
18/05:30pm SSE 17 21 - - - - - - - 23.6 1013.5 -
18/05:00pm SSE 17 19 - - - - - - - 23.6 1013.3 -
18/04:30pm SSE 17 21 - - - - - - - 23.5 1013.0 -
18/04:00pm SSE 19 22 - - - - - - - 23.6 1012.6 -
18/03:30pm S 19 23 - - - - - - - 23.7 1012.8 -
18/03:00pm S 19 22 - - - - - - - 23.5 1012.9 -
18/02:30pm SSE 19 22 - - - - - - - 23.7 1013.1 -
18/02:00pm S 20 24 - - - - - - - 23.6 1013.1 -
18/01:30pm S 20 23 - - - - - - - 23.6 1013.2 -
18/01:00pm SSE 20 23 - - - - - - - 23.8 1013.5 -
18/12:30pm SSE 19 23 - - - - - - - 23.9 1014.1 -
18/12:00pm SSE 19 22 - - - - - - - 23.7 1014.6 -
18/11:30am SSE 21 25 - - - - - - - 23.8 1014.9 -
18/11:00am S 20 23 - - - - - - - 23.9 1015.1 -
18/10:30am SSE 19 24 - - - - - - - 24.2 1015.5 -
18/10:00am SSE 19 25 - - - - - - - 23.9 1015.9 -
18/09:30am SSE 19 22 - - - - - - - 24.4 1016.0 -
18/09:00am SSE 18 21 - - - - - - - 24.4 1015.9 -
18/08:30am SSE 18 22 - - - - - - - 24.5 1015.7 -
18/08:00am SSE 18 21 - - - - - - - 24.4 1015.7 -
18/07:30am SSE 16 19 - - - - - - - 24.5 1015.5 -
18/07:00am SE 17 22 - - - - - - - 24.5 1015.3 -
18/06:30am SE 18 22 - - - - - - - 24.4 1015.0 -
18/06:00am SE 18 23 - - - - - - - 24.3 1014.8 -
18/05:30am SSE 19 23 - - - - - - - 24.2 1014.5 -
18/05:00am SSE 19 23 - - - - - - - 24.2 1014.3 -
18/04:30am SSE 19 23 - - - - - - - 24.3 1014.2 -
18/04:00am SE 17 22 - - - - - - - 24.3 1014.3 -
18/03:30am SE 17 21 - - - - - - - 24.4 1014.3 -
18/03:00am SE 17 21 - - - - - - - 24.5 1014.4 -
18/02:30am SE 18 22 - - - - - - - 24.5 1014.5 -
18/02:00am SE 16 20 - - - - - - - 24.4 1014.7 -
18/01:30am SE 17 22 - - - - - - - 24.2 1015.0 -
18/01:00am SE 17 20 - - - - - - - 24.3 1015.3 -
18/12:30am SE 19 22 - - - - - - - 24.4 1015.5 -
18/12:00am SE 19 22 - - - - - - - 24.4 1015.7 -
 
Date/Time
EST
Wind Sea
Height
m
Swell Vis
km
Cloud Weather Temp
°C
Press
MSL
hPa
Rain since
9am
mm
Dir  Spd
kts
Gust
kts
Height
m
Period
s
Dir
17/11:30pm SE 19 25 - - - - - - - 24.3 1016.2 -
17/11:00pm SE 19 23 - - - - - - - 24.4 1016.3 -
17/10:30pm SE 18 23 - - - - - - - 24.4 1016.6 -
17/10:00pm SE 19 23 - - - - - - - 24.6 1016.8 -
17/09:30pm SE 19 24 - - - - - - - 24.4 1016.9 -
17/09:00pm SSE 19 25 - - - - - - - 24.5 1016.9 -
17/08:30pm SE 18 23 - - - - - - - 24.7 1017.0 -
17/08:00pm SE 19 22 - - - - - - - 24.8 1016.9 -
17/07:30pm SSE 19 24 - - - - - - - 24.6 1016.7 -
17/07:00pm SSE 19 24 - - - - - - - 24.7 1016.5 -
17/06:30pm SE 19 23 - - - - - - - 24.7 1016.3 -
17/06:00pm SE 19 24 - - - - - - - 24.6 1015.9 -
17/05:30pm SE 18 22 - - - - - - - 24.8 1015.7 -
17/05:00pm SE 17 21 - - - - - - - 24.7 1015.4 -
17/04:30pm SE 17 22 - - - - - - - 24.8 1015.3 -
17/04:00pm SE 17 21 - - - - - - - 24.7 1015.2 -
17/03:30pm SE 18 21 - - - - - - - 24.9 1014.9 -
17/03:00pm SE 16 21 - - - - - - - 24.9 1015.0 -
17/02:30pm SE 16 20 - - - - - - - 24.9 1015.0 -
17/02:00pm SE 16 19 - - - - - - - 25.1 1015.1 -
17/01:30pm SE 16 19 - - - - - - - 25.1 1015.4 -
17/01:00pm SE 15 20 - - - - - - - 25.0 1015.9 -
17/12:30pm SE 16 19 - - - - - - - 24.9 1016.0 -
17/12:00pm SE 15 19 - - - - - - - 24.9 1016.6 -
17/11:30am SE 15 19 - - - - - - - 24.9 1017.1 -
17/11:00am SE 15 19 - - - - - - - 24.8 1017.4 -
17/10:30am SE 16 19 - - - - - - - 24.9 1017.7 -
17/10:00am SE 17 19 - - - - - - - 24.9 1018.0 -
17/09:30am SE 17 20 - - - - - - - 24.9 1018.1 -
17/09:00am SE 18 21 - - - - - - - 25.0 1018.2 -
17/08:30am ESE 19 21 - - - - - - - 25.0 1018.0 -
17/08:00am SE 19 22 - - - - - - - 24.8 1017.7 -
17/07:30am SE 18 21 - - - - - - - 24.9 1017.7 -
17/07:00am ESE 23 27 - - - - - - - 24.2 1017.4 -
17/06:30am ESE 20 23 - - - - - - - 24.7 1017.3 -
17/06:00am SE 20 24 - - - - - - - 24.6 1017.0 -
17/05:30am ESE 19 22 - - - - - - - 24.4 1016.9 -
17/05:00am SE 19 23 - - - - - - - 24.7 1016.7 -
17/04:30am SE 19 22 - - - - - - - 24.8 1016.6 -
17/04:00am ESE 20 23 - - - - - - - 24.8 1016.6 -
17/03:30am ESE 19 21 - - - - - - - 24.7 1016.7 -
17/03:00am ESE 18 20 - - - - - - - 25.0 1016.7 -
17/02:30am SE 11 17 - - - - - - - 24.4 1016.9 -
17/02:00am SE 18 22 - - - - - - - 24.7 1017.0 -
17/01:30am SE 18 21 - - - - - - - 24.3 1017.5 -
17/01:00am SE 20 24 - - - - - - - 24.2 1017.7 -
17/12:00am ESE 19 - - - - - - - - 25.0 1018.1 -

Other formats

Comma delimited format used in spreadsheet applications
http://www.bom.gov.au/fwo/IDQ60701/IDQ60701.94371.axf

JavaScript Object Notation format (JSON) in row-major order
http://www.bom.gov.au/fwo/IDQ60701/IDQ60701.94371.json

Data quality

Most of these data are generated automatically and are frequently updated. Quality checks on data are not normally performed. It is possible for incorrect values to appear. Refer to information at About Latest Weather Observations and please check the disclaimer before using these data.